Архив погоды в Ахты

Метеограмма Ахты
Пятница, 24 Мая
Время местн. Темп Ветер Видим Явления Облачность нижн/средн/верх Атм. давл. Влжн Точка росы ВНГО R Сост. почвы Tg s
Напр Скр Прв ур.ст ур.м изм
09:00 +19° В 2 - 50 км - незначительная облачность 675 636 -0.7 52% +9° - - - - -
06:00 +9.8° З,С-З 1 - 50 км - переменная облачность 675 635 +0.3 93% +8.8° - - Сухая (без трещин) - -
03:00 +10.7° З 1 - 10 км - ясно 675 635 -0.2 92% +9.4° более 2.5 км - - - -
00:00 +13.1° З 1 - 10 км - преимущественно облачно 675 636 +0.7 85% +10.7° 1 км - - - -
Четверг, 23 Мая
Время местн. Темп Ветер Видим Явления Облачность нижн/средн/верх Атм. давл. Влжн Точка росы ВНГО R Сост. почвы Tg s
Напр Скр Прв ур.ст ур.м изм
21:00 +13° штиль 0 - 10 км - переменная облачность 674 635 +0.4 86% +10.8° - - - - -
18:00 +15.7° В 1 - 50 км - преимущественно облачно 674 635 +0.3 75% +11.3° - - - - -
15:00 +18.6° В 3 - 50 км - облачно с прояснениями 674 635 +0.2 59% +10.4° - - - - -
12:00 +21.4° В 3 - 50 км - облачно с прояснениями 673 635 -1 47% +9.5° более 2.5 км - - - -
09:00 +18.8° Ю-В 1 - 50 км - переменная облачность 674 636 -1.1 47% +7.2° - - - - -
06:00 +12.1° З 2 - 50 км - переменная облачность 675 636 -0.2 87% +10° более 2.5 км - Сухая (без трещин) - -
03:00 +12.3° Ю-З 1 - 10 км - преимущественно облачно 676 636 +0.4 85% +9.9° 1 км - - - -
00:00 +12.5° В 1 - 10 км - ясно 675 636 +0.8 80% +9.2° более 2.5 км - - - -
Среда, 22 Мая
Время местн. Темп Ветер Видим Явления Облачность нижн/средн/верх Атм. давл. Влжн Точка росы ВНГО R Сост. почвы Tg s
Напр Скр Прв ур.ст ур.м изм
21:00 +13.5° З 1 - 10 км - переменная облачность 675 636 0 80% +10.1° 1 км - - - -
18:00 +15.6° В 2 - 50 км - преимущественно облачно 675 636 +0.2 71% +10.3° - - - - -
15:00 +20.1° В 3 - 50 км - переменная облачность 674 636 -0.7 54% +10.5° более 2.5 км - - - -
12:00 +19.7° В 4 - 50 км - переменная облачность 675 636 -2.3 58% +11.2° более 2.5 км - - - -
09:00 +17.2° В 1 - 50 км - ясно 677 638 -1.2 65% +10.5° более 2.5 км - - - -
06:00 +8.3° штиль 0 - 50 км - переменная облачность - - 0 94% +7.4° 1.5 км - Сухая (без трещин) - -
03:00 +8.3° штиль 0 - 10 км - ясно - - 0 90% +6.7° более 2.5 км - - - -
00:00 +10.9° Ю-З 1 - 10 км - ясно 679 639 -0.7 89% +9.2° более 2.5 км - - - -
Вторник, 21 Мая
Время местн. Темп Ветер Видим Явления Облачность нижн/средн/верх Атм. давл. Влжн Точка росы ВНГО R Сост. почвы Tg s
Напр Скр Прв ур.ст ур.м изм
21:00 +12° З 1 - 10 км - облачно 680 640 +0.6 77% +8.1° 1 км - - - -
18:00 +13.6° В 3 - 10 км - облачно 680 640 +0.5 74% +9.1° 1 км - - - -
15:00 +18.7° В 2 - 50 км - облачно с прояснениями 679 641 0 54% +9.3° 1.5 км - - - -
12:00 +19.4° В 3 - 50 км - облачно с прояснениями 679 641 -0.3 58% +10.8° 1.5 км - - - -
09:00 +14.8° В 1 - 20 км - преимущественно облачно 679 640 +0.3 76% +10.7° 1 км - - - -
06:00 +11.4° В,С-В 1 - 50 км - облачно 679 639 +0.9 95% +10.7° - - Влажная (без луж) - -